sensor_id;sensor_type;location;lat;lon;timestamp;P1;durP1;ratioP1;P2;durP2;ratioP2
6739;SDS011;3407;49.882;10.920;2023-05-19T00:01:27;1.20;;;1.20;;
6739;SDS011;3407;49.882;10.920;2023-05-19T00:06:23;1.63;;;1.63;;
6739;SDS011;3407;49.882;10.920;2023-05-19T00:11:20;0.90;;;0.90;;
6739;SDS011;3407;49.882;10.920;2023-05-19T00:16:16;1.00;;;1.00;;
6739;SDS011;3407;49.882;10.920;2023-05-19T00:21:13;0.93;;;0.93;;
6739;SDS011;3407;49.882;10.920;2023-05-19T00:26:09;0.90;;;0.90;;
6739;SDS011;3407;49.882;10.920;2023-05-19T00:31:05;1.03;;;1.03;;
6739;SDS011;3407;49.882;10.920;2023-05-19T00:36:01;0.90;;;0.90;;
6739;SDS011;3407;49.882;10.920;2023-05-19T00:40:58;1.00;;;1.00;;
6739;SDS011;3407;49.882;10.920;2023-05-19T00:45:54;0.93;;;0.93;;
6739;SDS011;3407;49.882;10.920;2023-05-19T00:50:51;1.00;;;1.00;;
6739;SDS011;3407;49.882;10.920;2023-05-19T00:55:48;0.93;;;0.93;;
6739;SDS011;3407;49.882;10.920;2023-05-19T01:00:44;1.37;;;1.27;;
6739;SDS011;3407;49.882;10.920;2023-05-19T01:05:40;0.93;;;0.93;;
6739;SDS011;3407;49.882;10.920;2023-05-19T01:10:38;1.00;;;1.00;;
6739;SDS011;3407;49.882;10.920;2023-05-19T01:15:36;1.00;;;1.00;;
6739;SDS011;3407;49.882;10.920;2023-05-19T01:20:48;1.50;;;1.30;;
6739;SDS011;3407;49.882;10.920;2023-05-19T01:31:06;1.00;;;1.00;;
6739;SDS011;3407;49.882;10.920;2023-05-19T01:36:06;1.00;;;1.00;;
6739;SDS011;3407;49.882;10.920;2023-05-19T01:41:02;1.00;;;1.00;;
6739;SDS011;3407;49.882;10.920;2023-05-19T01:46:00;1.00;;;1.00;;
6739;SDS011;3407;49.882;10.920;2023-05-19T01:50:56;1.00;;;1.00;;
6739;SDS011;3407;49.882;10.920;2023-05-19T01:55:53;1.10;;;1.10;;
6739;SDS011;3407;49.882;10.920;2023-05-19T02:00:57;0.90;;;0.90;;
6739;SDS011;3407;49.882;10.920;2023-05-19T02:16:16;1.00;;;1.00;;
6739;SDS011;3407;49.882;10.920;2023-05-19T02:21:14;0.90;;;0.90;;
6739;SDS011;3407;49.882;10.920;2023-05-19T02:26:10;0.90;;;0.90;;
6739;SDS011;3407;49.882;10.920;2023-05-19T02:31:05;0.90;;;0.90;;
6739;SDS011;3407;49.882;10.920;2023-05-19T02:36:03;0.90;;;0.90;;
6739;SDS011;3407;49.882;10.920;2023-05-19T02:40:59;1.07;;;1.07;;
6739;SDS011;3407;49.882;10.920;2023-05-19T02:45:54;1.00;;;1.00;;
6739;SDS011;3407;49.882;10.920;2023-05-19T02:50:50;1.00;;;1.00;;
6739;SDS011;3407;49.882;10.920;2023-05-19T02:55:45;0.90;;;0.90;;
6739;SDS011;3407;49.882;10.920;2023-05-19T03:00:41;0.90;;;0.90;;
6739;SDS011;3407;49.882;10.920;2023-05-19T03:05:39;0.97;;;0.97;;
6739;SDS011;3407;49.882;10.920;2023-05-19T03:10:35;1.00;;;1.00;;
6739;SDS011;3407;49.882;10.920;2023-05-19T03:15:30;1.80;;;1.07;;
6739;SDS011;3407;49.882;10.920;2023-05-19T03:20:26;1.00;;;1.00;;
6739;SDS011;3407;49.882;10.920;2023-05-19T03:25:21;1.00;;;1.00;;
6739;SDS011;3407;49.882;10.920;2023-05-19T03:30:17;1.00;;;1.00;;
6739;SDS011;3407;49.882;10.920;2023-05-19T03:35:13;1.43;;;1.00;;
6739;SDS011;3407;49.882;10.920;2023-05-19T03:40:08;0.90;;;0.90;;
6739;SDS011;3407;49.882;10.920;2023-05-19T03:45:04;1.00;;;1.00;;
6739;SDS011;3407;49.882;10.920;2023-05-19T03:50:00;0.93;;;0.93;;
6739;SDS011;3407;49.882;10.920;2023-05-19T03:54:56;1.00;;;1.00;;
6739;SDS011;3407;49.882;10.920;2023-05-19T03:59:51;1.00;;;1.00;;
6739;SDS011;3407;49.882;10.920;2023-05-19T04:04:47;0.90;;;0.90;;
6739;SDS011;3407;49.882;10.920;2023-05-19T04:09:42;0.90;;;0.90;;
6739;SDS011;3407;49.882;10.920;2023-05-19T04:14:38;0.97;;;0.97;;
6739;SDS011;3407;49.882;10.920;2023-05-19T04:19:34;0.90;;;0.90;;
6739;SDS011;3407;49.882;10.920;2023-05-19T04:24:29;0.90;;;0.90;;
6739;SDS011;3407;49.882;10.920;2023-05-19T04:29:25;0.80;;;0.80;;
6739;SDS011;3407;49.882;10.920;2023-05-19T04:34:22;1.00;;;1.00;;
6739;SDS011;3407;49.882;10.920;2023-05-19T04:39:18;1.00;;;1.00;;
6739;SDS011;3407;49.882;10.920;2023-05-19T04:44:13;0.90;;;0.90;;
6739;SDS011;3407;49.882;10.920;2023-05-19T04:49:11;0.90;;;0.90;;
6739;SDS011;3407;49.882;10.920;2023-05-19T04:54:08;0.83;;;0.83;;
6739;SDS011;3407;49.882;10.920;2023-05-19T04:59:04;0.90;;;0.90;;
6739;SDS011;3407;49.882;10.920;2023-05-19T05:04:00;0.80;;;0.80;;
6739;SDS011;3407;49.882;10.920;2023-05-19T05:08:56;1.30;;;0.97;;
6739;SDS011;3407;49.882;10.920;2023-05-19T05:13:52;0.80;;;0.80;;
6739;SDS011;3407;49.882;10.920;2023-05-19T05:18:47;0.80;;;0.80;;
6739;SDS011;3407;49.882;10.920;2023-05-19T05:23:43;0.90;;;0.90;;
6739;SDS011;3407;49.882;10.920;2023-05-19T05:28:40;0.80;;;0.80;;
6739;SDS011;3407;49.882;10.920;2023-05-19T05:33:36;0.80;;;0.80;;
6739;SDS011;3407;49.882;10.920;2023-05-19T05:38:32;0.80;;;0.80;;
6739;SDS011;3407;49.882;10.920;2023-05-19T05:43:28;0.70;;;0.70;;
6739;SDS011;3407;49.882;10.920;2023-05-19T05:48:24;0.90;;;0.90;;
6739;SDS011;3407;49.882;10.920;2023-05-19T05:53:20;0.80;;;0.80;;
6739;SDS011;3407;49.882;10.920;2023-05-19T05:58:18;0.80;;;0.80;;
6739;SDS011;3407;49.882;10.920;2023-05-19T06:03:15;0.70;;;0.70;;
6739;SDS011;3407;49.882;10.920;2023-05-19T06:08:10;0.70;;;0.70;;
6739;SDS011;3407;49.882;10.920;2023-05-19T06:13:06;0.70;;;0.70;;
6739;SDS011;3407;49.882;10.920;2023-05-19T06:18:01;0.70;;;0.70;;
6739;SDS011;3407;49.882;10.920;2023-05-19T06:22:57;0.80;;;0.80;;
6739;SDS011;3407;49.882;10.920;2023-05-19T06:27:53;0.87;;;0.87;;
6739;SDS011;3407;49.882;10.920;2023-05-19T06:32:49;0.70;;;0.70;;
6739;SDS011;3407;49.882;10.920;2023-05-19T06:37:44;0.70;;;0.70;;
6739;SDS011;3407;49.882;10.920;2023-05-19T06:42:40;1.00;;;1.00;;
6739;SDS011;3407;49.882;10.920;2023-05-19T06:47:35;0.70;;;0.70;;
6739;SDS011;3407;49.882;10.920;2023-05-19T06:52:31;0.70;;;0.70;;
6739;SDS011;3407;49.882;10.920;2023-05-19T06:57:26;0.80;;;0.80;;
6739;SDS011;3407;49.882;10.920;2023-05-19T07:02:22;0.70;;;0.70;;
6739;SDS011;3407;49.882;10.920;2023-05-19T07:07:17;0.70;;;0.70;;
6739;SDS011;3407;49.882;10.920;2023-05-19T07:12:13;0.70;;;0.70;;
6739;SDS011;3407;49.882;10.920;2023-05-19T07:17:08;0.70;;;0.70;;
6739;SDS011;3407;49.882;10.920;2023-05-19T07:22:04;0.70;;;0.70;;
6739;SDS011;3407;49.882;10.920;2023-05-19T07:26:59;0.60;;;0.60;;
6739;SDS011;3407;49.882;10.920;2023-05-19T07:31:55;0.60;;;0.60;;
6739;SDS011;3407;49.882;10.920;2023-05-19T07:36:51;0.60;;;0.60;;
6739;SDS011;3407;49.882;10.920;2023-05-19T07:41:47;0.70;;;0.70;;
6739;SDS011;3407;49.882;10.920;2023-05-19T07:46:46;0.60;;;0.60;;
6739;SDS011;3407;49.882;10.920;2023-05-19T07:51:42;0.77;;;0.77;;
6739;SDS011;3407;49.882;10.920;2023-05-19T07:56:37;0.70;;;0.70;;
6739;SDS011;3407;49.882;10.920;2023-05-19T08:01:33;0.60;;;0.60;;
6739;SDS011;3407;49.882;10.920;2023-05-19T08:06:28;0.60;;;0.60;;
6739;SDS011;3407;49.882;10.920;2023-05-19T08:11:25;0.60;;;0.60;;
6739;SDS011;3407;49.882;10.920;2023-05-19T08:16:21;0.60;;;0.60;;
6739;SDS011;3407;49.882;10.920;2023-05-19T08:21:16;0.50;;;0.50;;
6739;SDS011;3407;49.882;10.920;2023-05-19T08:26:12;1.03;;;0.70;;
6739;SDS011;3407;49.882;10.920;2023-05-19T08:31:08;0.87;;;0.87;;
6739;SDS011;3407;49.882;10.920;2023-05-19T08:36:03;0.63;;;0.63;;
6739;SDS011;3407;49.882;10.920;2023-05-19T08:40:59;0.30;;;0.30;;
6739;SDS011;3407;49.882;10.920;2023-05-19T08:45:55;0.40;;;0.40;;
6739;SDS011;3407;49.882;10.920;2023-05-19T08:50:56;0.40;;;0.40;;
6739;SDS011;3407;49.882;10.920;2023-05-19T08:56:19;0.50;;;0.50;;
6739;SDS011;3407;49.882;10.920;2023-05-19T09:01:17;0.50;;;0.50;;
6739;SDS011;3407;49.882;10.920;2023-05-19T09:06:13;0.60;;;0.60;;
6739;SDS011;3407;49.882;10.920;2023-05-19T09:11:09;0.40;;;0.40;;
6739;SDS011;3407;49.882;10.920;2023-05-19T09:16:05;0.40;;;0.40;;
6739;SDS011;3407;49.882;10.920;2023-05-19T09:21:01;0.50;;;0.50;;
6739;SDS011;3407;49.882;10.920;2023-05-19T09:25:59;0.60;;;0.60;;
6739;SDS011;3407;49.882;10.920;2023-05-19T09:31:07;0.63;;;0.63;;
6739;SDS011;3407;49.882;10.920;2023-05-19T09:36:03;0.40;;;0.40;;
6739;SDS011;3407;49.882;10.920;2023-05-19T09:41:02;0.40;;;0.40;;
6739;SDS011;3407;49.882;10.920;2023-05-19T09:50:59;0.50;;;0.50;;
6739;SDS011;3407;49.882;10.920;2023-05-19T09:55:55;0.60;;;0.60;;
6739;SDS011;3407;49.882;10.920;2023-05-19T10:00:54;0.40;;;0.40;;
6739;SDS011;3407;49.882;10.920;2023-05-19T10:05:50;0.40;;;0.40;;
6739;SDS011;3407;49.882;10.920;2023-05-19T10:10:47;0.60;;;0.60;;
6739;SDS011;3407;49.882;10.920;2023-05-19T10:15:43;0.50;;;0.50;;
6739;SDS011;3407;49.882;10.920;2023-05-19T10:20:40;0.50;;;0.50;;
6739;SDS011;3407;49.882;10.920;2023-05-19T10:25:37;0.50;;;0.50;;
6739;SDS011;3407;49.882;10.920;2023-05-19T10:30:36;0.90;;;0.90;;
6739;SDS011;3407;49.882;10.920;2023-05-19T10:47:04;0.40;;;0.40;;
6739;SDS011;3407;49.882;10.920;2023-05-19T10:52:01;0.40;;;0.40;;
6739;SDS011;3407;49.882;10.920;2023-05-19T10:56:56;0.30;;;0.30;;
6739;SDS011;3407;49.882;10.920;2023-05-19T11:01:52;0.40;;;0.40;;
6739;SDS011;3407;49.882;10.920;2023-05-19T11:06:49;0.50;;;0.50;;
6739;SDS011;3407;49.882;10.920;2023-05-19T11:11:46;0.50;;;0.50;;
6739;SDS011;3407;49.882;10.920;2023-05-19T11:16:58;0.40;;;0.40;;
6739;SDS011;3407;49.882;10.920;2023-05-19T11:21:54;0.40;;;0.40;;
6739;SDS011;3407;49.882;10.920;2023-05-19T11:26:50;0.50;;;0.50;;
6739;SDS011;3407;49.882;10.920;2023-05-19T11:31:48;0.40;;;0.40;;
6739;SDS011;3407;49.882;10.920;2023-05-19T11:36:45;0.40;;;0.40;;
6739;SDS011;3407;49.882;10.920;2023-05-19T11:41:42;0.93;;;0.60;;
6739;SDS011;3407;49.882;10.920;2023-05-19T11:46:37;0.50;;;0.50;;
6739;SDS011;3407;49.882;10.920;2023-05-19T11:51:33;0.40;;;0.40;;
6739;SDS011;3407;49.882;10.920;2023-05-19T11:56:36;0.50;;;0.50;;
6739;SDS011;3407;49.882;10.920;2023-05-19T12:01:35;0.73;;;0.73;;
6739;SDS011;3407;49.882;10.920;2023-05-19T12:06:30;0.50;;;0.50;;
6739;SDS011;3407;49.882;10.920;2023-05-19T12:11:27;0.47;;;0.47;;
6739;SDS011;3407;49.882;10.920;2023-05-19T12:16:31;0.60;;;0.60;;
6739;SDS011;3407;49.882;10.920;2023-05-19T12:21:28;0.47;;;0.47;;
6739;SDS011;3407;49.882;10.920;2023-05-19T12:26:23;0.60;;;0.60;;
6739;SDS011;3407;49.882;10.920;2023-05-19T12:31:19;0.67;;;0.67;;
6739;SDS011;3407;49.882;10.920;2023-05-19T12:36:17;0.40;;;0.40;;
6739;SDS011;3407;49.882;10.920;2023-05-19T12:41:13;0.50;;;0.50;;
6739;SDS011;3407;49.882;10.920;2023-05-19T12:46:09;0.40;;;0.40;;
6739;SDS011;3407;49.882;10.920;2023-05-19T12:51:06;0.50;;;0.50;;
6739;SDS011;3407;49.882;10.920;2023-05-19T12:56:08;0.43;;;0.43;;
6739;SDS011;3407;49.882;10.920;2023-05-19T13:01:06;0.40;;;0.40;;
6739;SDS011;3407;49.882;10.920;2023-05-19T13:06:04;0.73;;;0.70;;
6739;SDS011;3407;49.882;10.920;2023-05-19T13:11:00;0.40;;;0.40;;
6739;SDS011;3407;49.882;10.920;2023-05-19T13:15:55;0.40;;;0.40;;
6739;SDS011;3407;49.882;10.920;2023-05-19T13:20:51;0.40;;;0.40;;
6739;SDS011;3407;49.882;10.920;2023-05-19T13:25:48;0.50;;;0.50;;
6739;SDS011;3407;49.882;10.920;2023-05-19T13:30:45;0.40;;;0.40;;
6739;SDS011;3407;49.882;10.920;2023-05-19T13:35:40;0.50;;;0.50;;
6739;SDS011;3407;49.882;10.920;2023-05-19T13:40:36;0.57;;;0.57;;
6739;SDS011;3407;49.882;10.920;2023-05-19T13:45:33;0.50;;;0.50;;
6739;SDS011;3407;49.882;10.920;2023-05-19T13:50:29;0.40;;;0.40;;
6739;SDS011;3407;49.882;10.920;2023-05-19T13:55:24;0.50;;;0.50;;
6739;SDS011;3407;49.882;10.920;2023-05-19T14:00:21;0.80;;;0.80;;
6739;SDS011;3407;49.882;10.920;2023-05-19T14:05:16;0.50;;;0.50;;
6739;SDS011;3407;49.882;10.920;2023-05-19T14:10:12;0.60;;;0.60;;
6739;SDS011;3407;49.882;10.920;2023-05-19T14:15:08;0.83;;;0.83;;
6739;SDS011;3407;49.882;10.920;2023-05-19T14:20:04;0.73;;;0.70;;
6739;SDS011;3407;49.882;10.920;2023-05-19T14:25:00;0.70;;;0.70;;
6739;SDS011;3407;49.882;10.920;2023-05-19T14:29:56;1.17;;;0.57;;
6739;SDS011;3407;49.882;10.920;2023-05-19T14:34:51;0.50;;;0.50;;
6739;SDS011;3407;49.882;10.920;2023-05-19T14:39:47;0.63;;;0.63;;
6739;SDS011;3407;49.882;10.920;2023-05-19T14:44:43;0.50;;;0.50;;
6739;SDS011;3407;49.882;10.920;2023-05-19T14:49:39;0.50;;;0.50;;
6739;SDS011;3407;49.882;10.920;2023-05-19T14:54:34;0.70;;;0.70;;
6739;SDS011;3407;49.882;10.920;2023-05-19T14:59:30;0.50;;;0.50;;
6739;SDS011;3407;49.882;10.920;2023-05-19T15:04:25;0.50;;;0.50;;
6739;SDS011;3407;49.882;10.920;2023-05-19T15:09:21;0.70;;;0.70;;
6739;SDS011;3407;49.882;10.920;2023-05-19T15:14:17;0.60;;;0.60;;
6739;SDS011;3407;49.882;10.920;2023-05-19T15:19:12;0.50;;;0.50;;
6739;SDS011;3407;49.882;10.920;2023-05-19T15:24:07;0.50;;;0.50;;
6739;SDS011;3407;49.882;10.920;2023-05-19T15:29:03;0.70;;;0.70;;
6739;SDS011;3407;49.882;10.920;2023-05-19T15:33:58;0.53;;;0.53;;
6739;SDS011;3407;49.882;10.920;2023-05-19T15:38:54;0.70;;;0.70;;
6739;SDS011;3407;49.882;10.920;2023-05-19T15:43:49;0.63;;;0.63;;
6739;SDS011;3407;49.882;10.920;2023-05-19T15:48:45;0.50;;;0.50;;
6739;SDS011;3407;49.882;10.920;2023-05-19T15:53:40;0.60;;;0.60;;
6739;SDS011;3407;49.882;10.920;2023-05-19T15:58:36;0.53;;;0.53;;
6739;SDS011;3407;49.882;10.920;2023-05-19T16:03:32;0.50;;;0.50;;
6739;SDS011;3407;49.882;10.920;2023-05-19T16:08:27;0.90;;;0.90;;
6739;SDS011;3407;49.882;10.920;2023-05-19T16:13:23;0.60;;;0.60;;
6739;SDS011;3407;49.882;10.920;2023-05-19T16:18:19;0.90;;;0.90;;
6739;SDS011;3407;49.882;10.920;2023-05-19T16:23:14;0.60;;;0.60;;
6739;SDS011;3407;49.882;10.920;2023-05-19T16:28:10;0.60;;;0.60;;
6739;SDS011;3407;49.882;10.920;2023-05-19T16:33:06;0.70;;;0.70;;
6739;SDS011;3407;49.882;10.920;2023-05-19T16:38:01;1.53;;;1.53;;
6739;SDS011;3407;49.882;10.920;2023-05-19T16:42:57;0.60;;;0.60;;
6739;SDS011;3407;49.882;10.920;2023-05-19T16:47:52;0.60;;;0.60;;
6739;SDS011;3407;49.882;10.920;2023-05-19T16:52:48;0.60;;;0.60;;
6739;SDS011;3407;49.882;10.920;2023-05-19T16:57:44;0.57;;;0.57;;
6739;SDS011;3407;49.882;10.920;2023-05-19T17:02:40;0.60;;;0.60;;
6739;SDS011;3407;49.882;10.920;2023-05-19T17:07:36;0.53;;;0.53;;
6739;SDS011;3407;49.882;10.920;2023-05-19T17:12:31;0.60;;;0.60;;
6739;SDS011;3407;49.882;10.920;2023-05-19T17:17:27;0.70;;;0.70;;
6739;SDS011;3407;49.882;10.920;2023-05-19T17:22:22;0.60;;;0.60;;
6739;SDS011;3407;49.882;10.920;2023-05-19T17:27:18;0.50;;;0.50;;
6739;SDS011;3407;49.882;10.920;2023-05-19T17:32:13;0.63;;;0.63;;
6739;SDS011;3407;49.882;10.920;2023-05-19T17:37:09;0.57;;;0.57;;
6739;SDS011;3407;49.882;10.920;2023-05-19T17:42:04;0.50;;;0.50;;
6739;SDS011;3407;49.882;10.920;2023-05-19T17:47:00;0.60;;;0.60;;
6739;SDS011;3407;49.882;10.920;2023-05-19T17:51:56;0.60;;;0.60;;
6739;SDS011;3407;49.882;10.920;2023-05-19T17:56:52;0.67;;;0.67;;
6739;SDS011;3407;49.882;10.920;2023-05-19T18:01:51;0.60;;;0.60;;
6739;SDS011;3407;49.882;10.920;2023-05-19T18:06:47;1.10;;;1.10;;
6739;SDS011;3407;49.882;10.920;2023-05-19T18:11:46;0.90;;;0.90;;
6739;SDS011;3407;49.882;10.920;2023-05-19T18:16:42;0.60;;;0.60;;
6739;SDS011;3407;49.882;10.920;2023-05-19T18:21:37;0.80;;;0.80;;
6739;SDS011;3407;49.882;10.920;2023-05-19T18:26:33;0.90;;;0.90;;
6739;SDS011;3407;49.882;10.920;2023-05-19T18:31:31;0.60;;;0.60;;
6739;SDS011;3407;49.882;10.920;2023-05-19T18:36:27;0.80;;;0.80;;
6739;SDS011;3407;49.882;10.920;2023-05-19T18:41:23;0.93;;;0.93;;
6739;SDS011;3407;49.882;10.920;2023-05-19T18:46:18;0.70;;;0.70;;
6739;SDS011;3407;49.882;10.920;2023-05-19T18:51:14;0.60;;;0.60;;
6739;SDS011;3407;49.882;10.920;2023-05-19T18:56:12;0.80;;;0.80;;
6739;SDS011;3407;49.882;10.920;2023-05-19T19:01:09;0.67;;;0.67;;
6739;SDS011;3407;49.882;10.920;2023-05-19T19:06:05;0.80;;;0.80;;
6739;SDS011;3407;49.882;10.920;2023-05-19T19:11:01;0.60;;;0.60;;
6739;SDS011;3407;49.882;10.920;2023-05-19T19:15:57;0.90;;;0.90;;
6739;SDS011;3407;49.882;10.920;2023-05-19T19:20:52;0.67;;;0.67;;
6739;SDS011;3407;49.882;10.920;2023-05-19T19:25:52;0.60;;;0.60;;
6739;SDS011;3407;49.882;10.920;2023-05-19T19:30:47;1.23;;;1.23;;
6739;SDS011;3407;49.882;10.920;2023-05-19T19:35:44;1.17;;;1.07;;
6739;SDS011;3407;49.882;10.920;2023-05-19T19:40:40;1.10;;;1.10;;
6739;SDS011;3407;49.882;10.920;2023-05-19T19:45:36;0.70;;;0.70;;
6739;SDS011;3407;49.882;10.920;2023-05-19T19:50:33;1.00;;;1.00;;
6739;SDS011;3407;49.882;10.920;2023-05-19T19:55:28;0.60;;;0.60;;
6739;SDS011;3407;49.882;10.920;2023-05-19T20:00:27;0.93;;;0.93;;
6739;SDS011;3407;49.882;10.920;2023-05-19T20:05:22;0.73;;;0.73;;
6739;SDS011;3407;49.882;10.920;2023-05-19T20:10:18;0.60;;;0.60;;
6739;SDS011;3407;49.882;10.920;2023-05-19T20:15:13;0.60;;;0.60;;
6739;SDS011;3407;49.882;10.920;2023-05-19T20:20:10;0.70;;;0.70;;
6739;SDS011;3407;49.882;10.920;2023-05-19T20:25:06;0.60;;;0.60;;
6739;SDS011;3407;49.882;10.920;2023-05-19T20:30:02;1.57;;;1.47;;
6739;SDS011;3407;49.882;10.920;2023-05-19T20:34:58;0.77;;;0.77;;
6739;SDS011;3407;49.882;10.920;2023-05-19T20:39:53;0.70;;;0.70;;
6739;SDS011;3407;49.882;10.920;2023-05-19T20:44:49;0.70;;;0.70;;
6739;SDS011;3407;49.882;10.920;2023-05-19T20:49:45;0.60;;;0.60;;
6739;SDS011;3407;49.882;10.920;2023-05-19T20:54:42;0.70;;;0.70;;
6739;SDS011;3407;49.882;10.920;2023-05-19T20:59:37;0.70;;;0.70;;
6739;SDS011;3407;49.882;10.920;2023-05-19T21:04:33;0.80;;;0.80;;
6739;SDS011;3407;49.882;10.920;2023-05-19T21:09:29;0.70;;;0.70;;
6739;SDS011;3407;49.882;10.920;2023-05-19T21:14:24;0.70;;;0.70;;
6739;SDS011;3407;49.882;10.920;2023-05-19T21:19:20;0.80;;;0.80;;
6739;SDS011;3407;49.882;10.920;2023-05-19T21:24:16;0.80;;;0.80;;
6739;SDS011;3407;49.882;10.920;2023-05-19T21:29:12;1.13;;;1.13;;
6739;SDS011;3407;49.882;10.920;2023-05-19T21:34:07;0.63;;;0.63;;
6739;SDS011;3407;49.882;10.920;2023-05-19T21:39:03;1.10;;;1.10;;
6739;SDS011;3407;49.882;10.920;2023-05-19T21:43:59;0.77;;;0.77;;
6739;SDS011;3407;49.882;10.920;2023-05-19T21:48:54;0.70;;;0.70;;
6739;SDS011;3407;49.882;10.920;2023-05-19T21:53:50;0.60;;;0.60;;
6739;SDS011;3407;49.882;10.920;2023-05-19T21:58:45;0.90;;;0.90;;
6739;SDS011;3407;49.882;10.920;2023-05-19T22:03:41;0.70;;;0.70;;
6739;SDS011;3407;49.882;10.920;2023-05-19T22:08:37;0.67;;;0.67;;
6739;SDS011;3407;49.882;10.920;2023-05-19T22:13:32;1.00;;;1.00;;
6739;SDS011;3407;49.882;10.920;2023-05-19T22:18:28;0.73;;;0.73;;
6739;SDS011;3407;49.882;10.920;2023-05-19T22:23:23;0.90;;;0.90;;
6739;SDS011;3407;49.882;10.920;2023-05-19T22:28:19;0.83;;;0.83;;
6739;SDS011;3407;49.882;10.920;2023-05-19T22:33:14;0.70;;;0.70;;
6739;SDS011;3407;49.882;10.920;2023-05-19T22:38:10;0.70;;;0.70;;
6739;SDS011;3407;49.882;10.920;2023-05-19T22:43:06;0.70;;;0.70;;
6739;SDS011;3407;49.882;10.920;2023-05-19T22:48:01;0.73;;;0.73;;
6739;SDS011;3407;49.882;10.920;2023-05-19T22:52:57;0.70;;;0.70;;
6739;SDS011;3407;49.882;10.920;2023-05-19T22:57:52;0.73;;;0.73;;
6739;SDS011;3407;49.882;10.920;2023-05-19T23:02:48;1.10;;;1.10;;
6739;SDS011;3407;49.882;10.920;2023-05-19T23:07:43;0.80;;;0.80;;
6739;SDS011;3407;49.882;10.920;2023-05-19T23:12:39;0.87;;;0.87;;
6739;SDS011;3407;49.882;10.920;2023-05-19T23:17:35;0.87;;;0.87;;
6739;SDS011;3407;49.882;10.920;2023-05-19T23:22:31;0.80;;;0.80;;
6739;SDS011;3407;49.882;10.920;2023-05-19T23:27:26;0.70;;;0.70;;
6739;SDS011;3407;49.882;10.920;2023-05-19T23:32:22;0.80;;;0.80;;
6739;SDS011;3407;49.882;10.920;2023-05-19T23:37:17;0.80;;;0.80;;
6739;SDS011;3407;49.882;10.920;2023-05-19T23:42:13;0.77;;;0.77;;
6739;SDS011;3407;49.882;10.920;2023-05-19T23:47:08;0.90;;;0.90;;
6739;SDS011;3407;49.882;10.920;2023-05-19T23:52:04;1.10;;;1.10;;
6739;SDS011;3407;49.882;10.920;2023-05-19T23:57:00;0.83;;;0.83;;
